Time;durP1;ratioP1;P1;durP2;ratioP2;P2;SDS_P1;SDS_P2;PMS_P1;PMS_P2;Temp;Humidity;BMP_temperature;BMP_pressure;BME280_temperature;BME280_humidity;BME280_pressure;Samples;Min_cycle;Max_cycle;Signal;HPM_P1;HPM_P2
2021/08/03 00:02:10;;;;;;;;;8.50;5.00;;;;;;;;4674996;30;45994;-79
2021/08/03 00:04:42;;;;;;;;;7.50;5.00;;;;;;;;4670217;30;46455;-79
2021/08/03 00:07:09;;;;;;;;;5.25;4.25;;;;;;;;4656522;30;45833;-78
2021/08/03 00:09:35;;;;;;;;;7.00;5.50;;;;;;;;4647056;30;45642;-78
2021/08/03 00:14:53;;;;;;;;;6.50;5.25;;;;;;;;4626590;30;46958;-79
2021/08/03 00:17:22;;;;;;;;;5.50;5.50;;;;;;;;4673570;30;45680;-80
2021/08/03 00:19:48;;;;;;;;;7.75;7.00;;;;;;;;4673070;30;45546;-80
2021/08/03 00:22:13;;;;;;;;;6.00;6.00;;;;;;;;4671107;30;45373;-79
2021/08/03 00:31:28;;;;;;;;;5.50;4.00;;;;;;;;4538410;31;45590;-79
2021/08/03 00:33:55;;;;;;;;;7.00;5.50;;;;;;;;4533908;31;46327;-80
2021/08/03 00:36:24;;;;;;;;;6.00;6.00;;;;;;;;4519543;31;47107;-80
2021/08/03 00:38:49;;;;;;;;;8.00;6.00;;;;;;;;4534170;31;45963;-80
2021/08/03 00:41:17;;;;;;;;;6.00;4.75;;;;;;;;4539204;31;45527;-80
2021/08/03 00:43:48;;;;;;;;;5.50;5.50;;;;;;;;4536860;31;45564;-80
2021/08/03 00:46:13;;;;;;;;;5.00;5.00;;;;;;;;4534994;31;47341;-80
2021/08/03 00:48:45;;;;;;;;;6.25;6.00;;;;;;;;4535048;31;45702;-80
2021/08/03 00:51:10;;;;;;;;;7.50;6.00;;;;;;;;4517655;31;45552;-82
2021/08/03 00:53:35;;;;;;;;;8.25;6.00;;;;;;;;4525636;31;45633;-82
2021/08/03 00:56:00;;;;;;;;;7.00;5.25;;;;;;;;4537246;31;46179;-83
2021/08/03 01:02:01;;;;;;;;;7.75;6.00;;;;;;;;4569010;30;45571;-82
2021/08/03 01:04:26;;;;;;;;;5.75;5.75;;;;;;;;4566242;30;45776;-80
2021/08/03 01:07:03;;;;;;;;;6.75;6.75;;;;;;;;4573526;30;46877;-80
2021/08/03 01:09:36;;;;;;;;;5.75;4.50;;;;;;;;4605262;30;45705;-82
2021/08/03 01:12:09;;;;;;;;;8.00;4.50;;;;;;;;4598536;30;53160;-80
2021/08/03 01:14:50;;;;;;;;;5.00;5.00;;;;;;;;4603969;30;45546;-80
2021/08/03 01:17:34;;;;;;;;;7.50;5.00;;;;;;;;4597045;30;48141;-81
2021/08/03 01:20:11;;;;;;;;;5.00;5.00;;;;;;;;4598602;30;45573;-80
2021/08/03 01:22:51;;;;;;;;;7.50;4.50;;;;;;;;4597437;30;45499;-81
2021/08/03 01:28:24;;;;;;;;;5.00;4.50;;;;;;;;4586543;30;48389;-80
2021/08/03 01:30:53;;;;;;;;;4.25;4.25;;;;;;;;4602206;30;45847;-81
2021/08/03 01:33:20;;;;;;;;;9.50;4.50;;;;;;;;4604439;30;45667;-81
2021/08/03 01:35:46;;;;;;;;;6.50;5.25;;;;;;;;4588192;30;45550;-80
2021/08/03 01:38:18;;;;;;;;;5.00;5.00;;;;;;;;4638322;30;47180;-80
2021/08/03 01:43:48;;;;;;;;;6.00;6.00;;;;;;;;4590105;30;51443;-80
2021/08/03 01:46:44;;;;;;;;;6.00;6.00;;;;;;;;4594784;30;45814;-80
2021/08/03 01:49:10;;;;;;;;;7.25;6.25;;;;;;;;4567919;30;47345;-85
2021/08/03 01:51:35;;;;;;;;;7.00;6.00;;;;;;;;4593635;30;45671;-80
2021/08/03 02:04:15;;;;;;;;;5.25;4.00;;;;;;;;4681819;30;45669;-81
2021/08/03 02:06:41;;;;;;;;;6.75;6.75;;;;;;;;4694947;24;47171;-80
2021/08/03 02:12:07;;;;;;;;;6.00;6.00;;;;;;;;5026116;24;47339;-81
2021/08/03 02:14:35;;;;;;;;;6.75;5.25;;;;;;;;4697107;30;45702;-84
2021/08/03 02:17:03;;;;;;;;;5.50;5.50;;;;;;;;4687800;30;45531;-82
2021/08/03 02:19:29;;;;;;;;;7.75;6.00;;;;;;;;4773367;24;46383;-81
2021/08/03 02:21:54;;;;;;;;;8.25;6.50;;;;;;;;4665477;30;45582;-83
2021/08/03 02:24:19;;;;;;;;;8.00;6.75;;;;;;;;4716755;24;45566;-81
2021/08/03 02:26:48;;;;;;;;;5.50;5.50;;;;;;;;4703747;30;45470;-81
2021/08/03 02:29:16;;;;;;;;;6.00;6.00;;;;;;;;4704627;29;45682;-81
2021/08/03 02:35:17;;;;;;;;;10.75;6.50;;;;;;;;4683926;24;45626;-81
2021/08/03 02:37:47;;;;;;;;;5.00;5.00;;;;;;;;4633395;30;47799;-81
2021/08/03 02:40:12;;;;;;;;;8.00;6.00;;;;;;;;4767579;24;45905;-82
2021/08/03 02:43:01;;;;;;;;;11.00;7.25;;;;;;;;4775045;24;45912;-82
2021/08/03 02:49:00;;;;;;;;;6.75;6.50;;;;;;;;4568853;31;45756;-82
2021/08/03 02:54:41;;;;;;;;;7.50;6.25;;;;;;;;4517387;31;45762;-79
2021/08/03 02:57:09;;;;;;;;;7.75;6.00;;;;;;;;4534064;31;45446;-79
2021/08/03 02:59:47;;;;;;;;;7.25;5.75;;;;;;;;4534310;31;46450;-79
2021/08/03 03:03:32;;;;;;;;;7.00;6.00;;;;;;;;4538655;31;49731;-79
2021/08/03 03:05:44;;;;;;;;;8.00;6.50;;;;;;;;4510903;31;45603;-82
2021/08/03 03:08:11;;;;;;;;;9.00;8.25;;;;;;;;4605011;25;45678;-80
2021/08/03 03:11:18;;;;;;;;;10.75;7.00;;;;;;;;4667558;30;46143;-78
2021/08/03 03:16:50;;;;;;;;;13.50;7.50;;;;;;;;4676370;30;45788;-80
2021/08/03 03:19:21;;;;;;;;;9.25;7.75;;;;;;;;4685021;30;46851;-81
2021/08/03 03:21:47;;;;;;;;;10.00;8.25;;;;;;;;4669352;30;45587;-80
2021/08/03 03:24:51;;;;;;;;;9.00;8.00;;;;;;;;4682743;30;46458;-81
2021/08/03 03:27:17;;;;;;;;;9.50;8.00;;;;;;;;4616779;30;45427;-80
2021/08/03 03:30:09;;;;;;;;;11.75;10.00;;;;;;;;4616809;30;45563;-79
2021/08/03 03:33:04;;;;;;;;;10.25;10.25;;;;;;;;4615233;30;56741;-79
2021/08/03 03:35:30;;;;;;;;;9.75;7.75;;;;;;;;4667067;24;46235;-79
2021/08/03 03:38:22;;;;;;;;;7.00;6.75;;;;;;;;4662426;30;45810;-77
2021/08/03 03:41:56;;;;;;;;;10.50;8.00;;;;;;;;4665809;30;56219;-78
2021/08/03 03:44:04;;;;;;;;;11.00;9.00;;;;;;;;4647078;30;45603;-79
2021/08/03 03:46:41;;;;;;;;;9.00;7.50;;;;;;;;4662340;30;47491;-80
2021/08/03 03:49:08;;;;;;;;;13.25;9.25;;;;;;;;4659946;30;45958;-79
2021/08/03 04:03:33;;;;;;;;;16.25;10.25;;;;;;;;4586627;30;45515;-81
2021/08/03 04:06:01;;;;;;;;;11.25;10.00;;;;;;;;4588924;30;45677;-81
2021/08/03 04:08:41;;;;;;;;;10.00;10.00;;;;;;;;4575257;30;47763;-81
2021/08/03 04:11:08;;;;;;;;;9.00;9.00;;;;;;;;4574796;30;45822;-82
2021/08/03 04:13:33;;;;;;;;;16.50;12.00;;;;;;;;4585534;30;46013;-81
2021/08/03 04:16:01;;;;;;;;;10.00;8.50;;;;;;;;4597820;30;45509;-81
2021/08/03 04:18:26;;;;;;;;;13.25;8.75;;;;;;;;4694837;24;45771;-82
2021/08/03 04:21:15;;;;;;;;;11.33;11.00;;;;;;;;4676242;30;45600;-81
2021/08/03 04:31:56;;;;;;;;;12.75;10.75;;;;;;;;4669770;30;46091;-80
2021/08/03 04:34:25;;;;;;;;;15.25;11.00;;;;;;;;4672194;30;45736;-80
2021/08/03 04:39:56;;;;;;;;;14.75;9.75;;;;;;;;4570958;31;46052;-80
2021/08/03 04:55:17;;;;;;;;;10.00;9.00;;;;;;;;4864721;24;47712;-83
2021/08/03 04:57:51;;;;;;;;;12.50;9.25;;;;;;;;4691232;30;45790;-81
2021/08/03 05:00:17;;;;;;;;;10.75;7.25;;;;;;;;4673447;30;47967;-81
2021/08/03 05:02:42;;;;;;;;;12.00;9.75;;;;;;;;4675771;30;45665;-85
2021/08/03 05:05:08;;;;;;;;;8.00;7.50;;;;;;;;4696272;30;45439;-81
2021/08/03 05:08:05;;;;;;;;;10.50;8.00;;;;;;;;4685350;30;45798;-81
2021/08/03 05:10:31;;;;;;;;;16.25;10.00;;;;;;;;4634390;30;46207;-82
2021/08/03 05:18:45;;;;;;;;;9.75;8.75;;;;;;;;1212306;24;46299;-81
2021/08/03 05:21:10;;;;;;;;;10.75;9.75;;;;;;;;4618002;30;45555;-81
2021/08/03 05:31:28;;;;;;;;;10.00;9.00;;;;;;;;3134906;28;46773;-82
2021/08/03 05:33:53;;;;;;;;;8.25;6.75;;;;;;;;4691338;30;45512;-82
2021/08/03 05:36:48;;;;;;;;;11.75;9.50;;;;;;;;4672420;30;46241;-81
2021/08/03 05:41:48;;;;;;;;;13.75;13.00;;;;;;;;1373650;28;46104;-82
2021/08/03 05:46:51;;;;;;;;;8.25;7.25;;;;;;;;4664590;30;45638;-81
2021/08/03 05:49:20;;;;;;;;;10.25;9.00;;;;;;;;4737555;24;45601;-82
2021/08/03 05:54:40;;;;;;;;;7.50;6.50;;;;;;;;4424057;28;45762;-81
2021/08/03 06:00:04;;;;;;;;;10.00;7.50;;;;;;;;4679515;24;46638;-81
2021/08/03 06:02:29;;;;;;;;;11.00;10.25;;;;;;;;4743292;24;47456;-81
2021/08/03 06:04:55;;;;;;;;;10.50;8.50;;;;;;;;4703168;30;46787;-82
2021/08/03 06:07:51;;;;;;;;;11.00;9.75;;;;;;;;4690483;30;45601;-81
2021/08/03 06:10:16;;;;;;;;;10.50;9.50;;;;;;;;4662740;30;45592;-84
2021/08/03 06:13:01;;;;;;;;;9.25;7.50;;;;;;;;4695672;30;48164;-81
2021/08/03 06:15:33;;;;;;;;;9.00;9.00;;;;;;;;4699558;29;45662;-81
2021/08/03 06:23:12;;;;;;;;;11.25;7.00;;;;;;;;4706691;24;46394;-82
2021/08/03 06:25:42;;;;;;;;;10.00;10.00;;;;;;;;4703132;30;45600;-81
2021/08/03 06:28:07;;;;;;;;;10.75;8.00;;;;;;;;4696386;30;45688;-82
2021/08/03 06:33:08;;;;;;;;;10.50;9.75;;;;;;;;5228998;24;45910;-83
2021/08/03 06:35:33;;;;;;;;;11.50;9.00;;;;;;;;4673827;30;45551;-83
2021/08/03 06:37:59;;;;;;;;;14.00;10.00;;;;;;;;4670357;30;45652;-81
2021/08/03 06:43:33;;;;;;;;;10.00;9.75;;;;;;;;4565219;30;46559;-82
2021/08/03 06:46:10;;;;;;;;;9.00;7.25;;;;;;;;4556846;30;45636;-81
2021/08/03 06:51:35;;;;;;;;;6.75;6.75;;;;;;;;4850972;24;45611;-82
2021/08/03 06:56:53;;;;;;;;;9.25;8.75;;;;;;;;4687807;30;45526;-81
2021/08/03 06:59:22;;;;;;;;;10.00;8.75;;;;;;;;4707850;30;45592;-81
2021/08/03 07:02:26;;;;;;;;;10.00;8.75;;;;;;;;4699076;29;45682;-82
2021/08/03 07:08:24;;;;;;;;;10.67;9.00;;;;;;;;4728378;30;45364;-95
2021/08/03 07:13:25;;;;;;;;;8.00;8.00;;;;;;;;3018890;28;48422;-82
2021/08/03 07:15:51;;;;;;;;;6.50;6.50;;;;;;;;4688200;30;47183;-82
2021/08/03 07:18:20;;;;;;;;;6.50;5.75;;;;;;;;4703171;30;46069;-81
2021/08/03 07:28:31;;;;;;;;;7.25;5.25;;;;;;;;4459147;28;46190;-81
2021/08/03 07:39:29;;;;;;;;;6.00;5.00;;;;;;;;4666451;28;45853;-81
2021/08/03 07:41:55;;;;;;;;;4.00;4.00;;;;;;;;4683715;30;45562;-82
2021/08/03 07:44:21;;;;;;;;;3.00;3.00;;;;;;;;4691554;30;45530;-82
2021/08/03 07:46:46;;;;;;;;;5.00;5.00;;;;;;;;4776042;24;45854;-81
2021/08/03 07:49:27;;;;;;;;;2.00;2.00;;;;;;;;4706414;29;45494;-80
2021/08/03 07:52:13;;;;;;;;;3.25;3.25;;;;;;;;4708775;30;45637;-82
2021/08/03 07:57:50;;;;;;;;;3.50;3.00;;;;;;;;4921453;24;45622;-91
2021/08/03 08:02:50;;;;;;;;;3.00;2.00;;;;;;;;4688975;24;49482;-81
2021/08/03 08:05:15;;;;;;;;;3.00;3.00;;;;;;;;4673804;30;45455;-79
2021/08/03 08:07:40;;;;;;;;;3.00;2.00;;;;;;;;4651196;30;46183;-80
2021/08/03 08:13:13;;;;;;;;;3.50;3.00;;;;;;;;4591085;30;45588;-82
2021/08/03 08:15:39;;;;;;;;;3.33;3.00;;;;;;;;4743779;24;45594;-82
2021/08/03 08:18:13;;;;;;;;;4.25;2.00;;;;;;;;4684700;30;46324;-82
2021/08/03 08:20:42;;;;;;;;;4.75;3.50;;;;;;;;4989480;24;46835;-81
2021/08/03 08:23:08;;;;;;;;;8.50;3.25;;;;;;;;4708458;30;45668;-81
2021/08/03 08:25:34;;;;;;;;;2.00;2.00;;;;;;;;4720533;24;45697;-82
2021/08/03 08:33:09;;;;;;;;;2.75;2.75;;;;;;;;3857242;28;45879;-82
2021/08/03 08:35:35;;;;;;;;;3.00;3.00;;;;;;;;4691417;30;45605;-81
2021/08/03 08:38:01;;;;;;;;;2.50;2.50;;;;;;;;4687391;30;48366;-81
2021/08/03 08:40:36;;;;;;;;;2.00;2.00;;;;;;;;4727903;24;46012;-81
2021/08/03 08:45:33;;;;;;;;;4.00;4.00;;;;;;;;4688918;30;45532;-82
2021/08/03 08:47:59;;;;;;;;;4.25;4.25;;;;;;;;4687322;30;45684;-82
2021/08/03 08:50:42;;;;;;;;;6.50;3.75;;;;;;;;4695852;24;46608;-86
2021/08/03 08:55:42;;;;;;;;;6.25;5.00;;;;;;;;5170932;24;46000;-82
2021/08/03 08:58:08;;;;;;;;;4.25;4.25;;;;;;;;4678906;30;47346;-82
2021/08/03 09:00:33;;;;;;;;;4.00;4.00;;;;;;;;4665216;30;45530;-82
2021/08/03 09:03:34;;;;;;;;;4.00;4.00;;;;;;;;4676529;30;56210;-82
2021/08/03 09:11:46;;;;;;;;;3.00;3.00;;;;;;;;4819003;24;45697;-84
2021/08/03 09:14:34;;;;;;;;;5.00;5.00;;;;;;;;4668977;30;48359;-82
2021/08/03 09:16:59;;;;;;;;;4.50;3.00;;;;;;;;4742087;24;45475;-82
2021/08/03 09:19:28;;;;;;;;;5.25;4.50;;;;;;;;4674702;30;46817;-82
2021/08/03 09:22:12;;;;;;;;;3.25;2.50;;;;;;;;4698011;30;45711;-82
2021/08/03 09:28:11;;;;;;;;;5.50;3.50;;;;;;;;4690377;30;45574;-82
2021/08/03 09:30:46;;;;;;;;;4.00;3.00;;;;;;;;4676817;30;46562;-83
2021/08/03 09:42:34;;;;;;;;;3.75;3.75;;;;;;;;1296420;28;46249;-83
2021/08/03 09:45:11;;;;;;;;;4.25;3.50;;;;;;;;4677440;30;46180;-81
2021/08/03 09:47:47;;;;;;;;;5.25;3.00;;;;;;;;4690192;30;45703;-84
2021/08/03 09:50:12;;;;;;;;;3.75;3.75;;;;;;;;4672499;30;45699;-82
2021/08/03 09:52:41;;;;;;;;;2.50;2.50;;;;;;;;4678667;30;46976;-84
2021/08/03 09:55:11;;;;;;;;;3.25;3.25;;;;;;;;4679458;30;45850;-82
2021/08/03 09:57:37;;;;;;;;;4.00;3.00;;;;;;;;4682084;30;45766;-82
2021/08/03 10:09:21;;;;;;;;;4.75;3.00;;;;;;;;4575992;30;45580;-82
2021/08/03 10:12:07;;;;;;;;;4.00;3.00;;;;;;;;4577008;30;47081;-81
2021/08/03 10:14:38;;;;;;;;;3.50;3.00;;;;;;;;4582895;30;45902;-82
2021/08/03 10:17:13;;;;;;;;;3.00;2.50;;;;;;;;4580471;30;45571;-82
2021/08/03 10:19:39;;;;;;;;;3.00;3.00;;;;;;;;4573260;30;45605;-82
2021/08/03 10:22:27;;;;;;;;;3.50;2.75;;;;;;;;4573103;30;47029;-82
2021/08/03 10:31:39;;;;;;;;;4.75;4.00;;;;;;;;4540779;31;46918;-82
2021/08/03 10:34:05;;;;;;;;;3.50;3.50;;;;;;;;4547438;31;46885;-81
2021/08/03 10:36:36;;;;;;;;;4.50;3.50;;;;;;;;4539816;31;46704;-82
2021/08/03 10:49:53;;;;;;;;;5.00;3.00;;;;;;;;3029013;24;46091;-81
2021/08/03 10:55:31;;;;;;;;;4.00;4.00;;;;;;;;4694902;30;46747;-87
2021/08/03 10:58:08;;;;;;;;;5.25;3.75;;;;;;;;4695455;30;47172;-82
2021/08/03 11:00:43;;;;;;;;;3.25;3.25;;;;;;;;4706456;30;45618;-81
2021/08/03 11:03:27;;;;;;;;;4.00;4.00;;;;;;;;4694594;30;46483;-82
2021/08/03 11:11:22;;;;;;;;;6.50;4.50;;;;;;;;5154748;24;45630;-82
2021/08/03 11:14:35;;;;;;;;;5.75;4.00;;;;;;;;4674456;30;45887;-82
2021/08/03 11:17:03;;;;;;;;;5.00;4.00;;;;;;;;4586935;30;45531;-84
2021/08/03 11:19:37;;;;;;;;;4.75;4.75;;;;;;;;4601271;30;48566;-81
2021/08/03 11:22:03;;;;;;;;;5.00;4.75;;;;;;;;4591492;30;45557;-83
2021/08/03 11:25:06;;;;;;;;;3.75;3.00;;;;;;;;4600247;30;45715;-81
2021/08/03 11:27:32;;;;;;;;;6.25;4.00;;;;;;;;4567995;30;45645;-82
2021/08/03 11:35:07;;;;;;;;;5.25;3.75;;;;;;;;4039299;24;46171;-81
2021/08/03 11:38:13;;;;;;;;;4.00;4.00;;;;;;;;4683189;30;45601;-82
2021/08/03 11:41:02;;;;;;;;;4.75;4.00;;;;;;;;4595842;30;47379;-81
2021/08/03 11:43:27;;;;;;;;;4.75;4.00;;;;;;;;4581162;30;45633;-82
2021/08/03 11:46:18;;;;;;;;;7.25;4.50;;;;;;;;4597234;30;45576;-81
2021/08/03 11:51:46;;;;;;;;;4.00;3.75;;;;;;;;4519132;28;45990;-81
2021/08/03 11:54:12;;;;;;;;;4.25;4.00;;;;;;;;4686047;30;45680;-81
2021/08/03 11:56:37;;;;;;;;;4.75;4.00;;;;;;;;4747285;24;45876;-82
2021/08/03 11:59:11;;;;;;;;;5.50;4.50;;;;;;;;4708333;29;45647;-81
2021/08/03 12:01:49;;;;;;;;;7.00;3.00;;;;;;;;4701471;30;46410;-81
2021/08/03 12:04:15;;;;;;;;;4.50;3.25;;;;;;;;4710871;29;45953;-82
2021/08/03 12:06:40;;;;;;;;;4.50;4.50;;;;;;;;4714216;29;45533;-81
2021/08/03 12:09:07;;;;;;;;;4.00;3.00;;;;;;;;4693116;30;48788;-82
2021/08/03 12:11:32;;;;;;;;;4.33;3.33;;;;;;;;4943307;24;45603;-81
2021/08/03 12:14:27;;;;;;;;;4.00;3.00;;;;;;;;4698713;29;45451;-81
2021/08/03 12:17:01;;;;;;;;;3.25;3.25;;;;;;;;4668250;30;45811;-81
2021/08/03 12:20:08;;;;;;;;;5.00;5.00;;;;;;;;4692100;29;45633;-82
2021/08/03 12:22:33;;;;;;;;;4.00;4.00;;;;;;;;4703261;30;46594;-83
2021/08/03 12:25:02;;;;;;;;;4.00;4.00;;;;;;;;4691399;30;52360;-81
2021/08/03 12:27:41;;;;;;;;;3.00;3.00;;;;;;;;4703781;30;45633;-81
2021/08/03 12:36:07;;;;;;;;;5.75;3.75;;;;;;;;4745113;24;45664;-82
2021/08/03 12:38:32;;;;;;;;;3.75;3.50;;;;;;;;4664532;30;45800;-81
2021/08/03 12:41:33;;;;;;;;;3.50;3.50;;;;;;;;4693934;30;48249;-81
2021/08/03 12:43:59;;;;;;;;;4.25;3.50;;;;;;;;4604636;30;45997;-81
2021/08/03 12:49:08;;;;;;;;;4.25;4.25;;;;;;;;4826225;24;46481;-82
2021/08/03 12:51:57;;;;;;;;;3.50;3.00;;;;;;;;4812153;24;46832;-79
2021/08/03 12:54:42;;;;;;;;;8.75;5.25;;;;;;;;4688052;30;48576;-79
2021/08/03 12:57:09;;;;;;;;;7.00;5.00;;;;;;;;4700520;30;47460;-79
2021/08/03 12:59:44;;;;;;;;;5.50;3.75;;;;;;;;4699432;30;45546;-79
2021/08/03 13:02:13;;;;;;;;;6.00;4.75;;;;;;;;4696540;30;45707;-78
2021/08/03 13:04:39;;;;;;;;;4.25;3.00;;;;;;;;4686555;24;47366;-78
2021/08/03 13:07:31;;;;;;;;;3.25;3.00;;;;;;;;4675206;30;45579;-78
2021/08/03 13:09:59;;;;;;;;;4.00;3.00;;;;;;;;4677916;30;46086;-82
2021/08/03 13:12:25;;;;;;;;;3.50;3.50;;;;;;;;4672759;30;45540;-78
2021/08/03 13:14:50;;;;;;;;;4.50;2.75;;;;;;;;4655920;30;47159;-79
2021/08/03 13:20:31;;;;;;;;;5.25;4.25;;;;;;;;4603165;30;45476;-80
2021/08/03 13:22:56;;;;;;;;;4.00;4.00;;;;;;;;4588140;30;45957;-79
2021/08/03 13:25:50;;;;;;;;;3.25;2.75;;;;;;;;4599283;30;45602;-78
2021/08/03 13:28:15;;;;;;;;;5.00;5.00;;;;;;;;4604472;30;45437;-79
2021/08/03 13:30:44;;;;;;;;;4.00;4.00;;;;;;;;4611870;30;45530;-78
2021/08/03 13:36:26;;;;;;;;;6.25;5.00;;;;;;;;4576707;30;45494;-79
2021/08/03 13:42:00;;;;;;;;;6.25;4.25;;;;;;;;4500674;31;46305;-79
2021/08/03 13:44:28;;;;;;;;;3.75;3.00;;;;;;;;4490062;31;45733;-78
2021/08/03 13:46:54;;;;;;;;;5.00;5.00;;;;;;;;4501058;31;46507;-78
2021/08/03 13:49:20;;;;;;;;;4.00;4.00;;;;;;;;4501743;31;45783;-78
2021/08/03 13:51:45;;;;;;;;;6.00;5.00;;;;;;;;4510282;31;44906;-81
2021/08/03 13:54:10;;;;;;;;;4.50;3.75;;;;;;;;4662583;24;45582;-81
2021/08/03 13:56:35;;;;;;;;;5.75;3.50;;;;;;;;4688163;30;47400;-81
2021/08/03 14:01:35;;;;;;;;;5.50;4.25;;;;;;;;4685974;30;46034;-80
2021/08/03 14:04:00;;;;;;;;;3.25;3.25;;;;;;;;4691918;30;46019;-81
2021/08/03 14:07:13;;;;;;;;;4.25;4.25;;;;;;;;4699157;30;50378;-81
2021/08/03 14:10:03;;;;;;;;;4.50;3.75;;;;;;;;4668904;30;46382;-81
2021/08/03 14:17:33;;;;;;;;;5.00;5.00;;;;;;;;4710425;24;46218;-81
2021/08/03 14:19:59;;;;;;;;;4.75;4.75;;;;;;;;4693899;30;45419;-82
2021/08/03 14:22:24;;;;;;;;;2.75;2.75;;;;;;;;4688290;30;52225;-82
2021/08/03 14:24:49;;;;;;;;;4.75;4.50;;;;;;;;4684380;30;45573;-82
2021/08/03 14:30:23;;;;;;;;;4.75;3.00;;;;;;;;4626129;30;45534;-81
2021/08/03 14:32:48;;;;;;;;;4.00;3.75;;;;;;;;4610066;30;45389;-83
2021/08/03 14:38:12;;;;;;;;;7.00;3.75;;;;;;;;4975440;24;48785;-81
2021/08/03 14:40:37;;;;;;;;;4.50;3.75;;;;;;;;4644312;30;46074;-82
2021/08/03 14:43:06;;;;;;;;;7.50;4.00;;;;;;;;4661296;30;45725;-82
2021/08/03 14:46:12;;;;;;;;;4.25;4.25;;;;;;;;4660200;30;45459;-82
2021/08/03 14:48:36;;;;;;;;;6.75;5.75;;;;;;;;5106953;24;46611;-82
2021/08/03 14:53:34;;;;;;;;;5.25;4.00;;;;;;;;4688750;30;46536;-79
2021/08/03 14:55:59;;;;;;;;;4.00;4.00;;;;;;;;4686472;30;50586;-79
2021/08/03 14:58:44;;;;;;;;;4.50;4.00;;;;;;;;4688706;30;46154;-79
2021/08/03 15:01:54;;;;;;;;;4.25;4.00;;;;;;;;4689346;30;45731;-79
2021/08/03 15:04:36;;;;;;;;;2.75;2.75;;;;;;;;4685464;30;45434;-81
2021/08/03 15:07:01;;;;;;;;;5.75;3.00;;;;;;;;4686705;30;45585;-81
2021/08/03 15:09:29;;;;;;;;;4.25;2.75;;;;;;;;4728949;24;46390;-79
2021/08/03 15:12:18;;;;;;;;;3.00;2.25;;;;;;;;4677518;30;46081;-79
2021/08/03 15:14:46;;;;;;;;;5.00;3.75;;;;;;;;4669642;30;45455;-80
2021/08/03 15:17:17;;;;;;;;;4.00;4.00;;;;;;;;4684520;30;45452;-80
2021/08/03 15:20:09;;;;;;;;;3.75;3.75;;;;;;;;4681734;30;46333;-79
2021/08/03 15:22:37;;;;;;;;;3.00;3.00;;;;;;;;4668626;30;45550;-79
2021/08/03 15:28:17;;;;;;;;;3.00;3.00;;;;;;;;4588483;30;45589;-79
2021/08/03 15:30:43;;;;;;;;;4.00;4.00;;;;;;;;4588320;30;46161;-79
2021/08/03 15:33:37;;;;;;;;;6.50;4.50;;;;;;;;4583056;30;45634;-79
2021/08/03 15:36:52;;;;;;;;;4.25;2.75;;;;;;;;4542181;31;45606;-79
2021/08/03 15:39:17;;;;;;;;;4.50;2.50;;;;;;;;4537019;31;45995;-80
2021/08/03 15:41:42;;;;;;;;;3.25;2.25;;;;;;;;4549929;31;46252;-79
2021/08/03 15:44:16;;;;;;;;;3.75;3.75;;;;;;;;4535207;31;45701;-79
2021/08/03 15:46:42;;;;;;;;;4.00;3.00;;;;;;;;4546026;31;47273;-79
2021/08/03 15:49:25;;;;;;;;;4.00;4.00;;;;;;;;4547399;31;45630;-78
2021/08/03 15:58:09;;;;;;;;;3.75;3.00;;;;;;;;4891748;24;45534;-82
2021/08/03 16:21:55;;;;;;;;;3.00;3.00;;;;;;;;4736949;24;45582;-82
2021/08/03 16:26:56;;;;;;;;;3.25;3.25;;;;;;;;4793357;24;47145;-81
2021/08/03 16:29:50;;;;;;;;;3.75;3.75;;;;;;;;4673514;30;45602;-83
2021/08/03 16:32:18;;;;;;;;;5.75;3.75;;;;;;;;4659041;30;45531;-81
2021/08/03 16:35:02;;;;;;;;;4.00;3.50;;;;;;;;4662382;30;46435;-81
2021/08/03 16:37:34;;;;;;;;;2.75;2.75;;;;;;;;4655205;30;45667;-81
2021/08/03 16:40:41;;;;;;;;;3.75;3.75;;;;;;;;4657867;30;45609;-81
2021/08/03 16:43:26;;;;;;;;;3.75;3.50;;;;;;;;4609063;30;45821;-83
2021/08/03 16:46:02;;;;;;;;;2.50;2.50;;;;;;;;4615428;30;45737;-81
2021/08/03 16:48:29;;;;;;;;;3.50;3.50;;;;;;;;4603275;30;45672;-81
2021/08/03 16:50:54;;;;;;;;;7.25;3.00;;;;;;;;4897907;24;45955;-79
2021/08/03 16:53:20;;;;;;;;;4.75;4.75;;;;;;;;4676384;30;46826;-79
2021/08/03 16:56:14;;;;;;;;;3.75;3.75;;;;;;;;4687650;30;45537;-79
2021/08/03 16:58:45;;;;;;;;;4.00;3.25;;;;;;;;4682156;30;45706;-79
2021/08/03 17:01:12;;;;;;;;;4.25;3.75;;;;;;;;4691211;30;45475;-79
2021/08/03 17:04:01;;;;;;;;;4.00;4.00;;;;;;;;4685876;30;45500;-80
2021/08/03 17:14:46;;;;;;;;;4.75;4.75;;;;;;;;4643656;30;46812;-79
2021/08/03 17:17:41;;;;;;;;;5.75;4.25;;;;;;;;4644375;30;45498;-81
2021/08/03 17:20:11;;;;;;;;;4.50;4.50;;;;;;;;4628998;30;45711;-78
2021/08/03 17:22:57;;;;;;;;;4.00;4.00;;;;;;;;4644094;30;45677;-80
2021/08/03 17:25:34;;;;;;;;;5.25;4.00;;;;;;;;4639033;30;45560;-83
2021/08/03 17:28:00;;;;;;;;;4.75;4.00;;;;;;;;4644539;30;45607;-80
2021/08/03 17:30:44;;;;;;;;;6.75;5.00;;;;;;;;4646160;30;50860;-80
2021/08/03 17:33:10;;;;;;;;;7.25;5.25;;;;;;;;4657980;30;44885;-81
2021/08/03 17:35:45;;;;;;;;;7.50;5.00;;;;;;;;4652225;30;45499;-79
2021/08/03 17:38:10;;;;;;;;;5.00;4.00;;;;;;;;4646978;30;46829;-80
2021/08/03 17:44:24;;;;;;;;;4.00;4.00;;;;;;;;4637703;30;45552;-79
2021/08/03 17:46:46;;;;;;;;;4.75;4.75;;;;;;;;4632115;30;45774;-80
2021/08/03 17:52:34;;;;;;;;;4.00;4.00;;;;;;;;4554690;30;45841;-79
2021/08/03 17:58:06;;;;;;;;;3.00;3.00;;;;;;;;4056733;28;46356;-80
2021/08/03 18:00:32;;;;;;;;;4.00;4.00;;;;;;;;4656542;30;45577;-80
2021/08/03 18:02:58;;;;;;;;;5.50;4.50;;;;;;;;4669224;30;45825;-80
2021/08/03 18:05:24;;;;;;;;;4.00;4.00;;;;;;;;4689411;30;45391;-80
2021/08/03 18:07:49;;;;;;;;;5.75;4.00;;;;;;;;4666890;30;45984;-80
2021/08/03 18:13:30;;;;;;;;;4.00;3.00;;;;;;;;4562057;30;45763;-80
2021/08/03 18:19:10;;;;;;;;;5.00;5.00;;;;;;;;4560896;30;46032;-80
2021/08/03 18:21:38;;;;;;;;;4.00;4.00;;;;;;;;4569850;31;45559;-80
2021/08/03 18:24:04;;;;;;;;;3.25;2.75;;;;;;;;4551956;30;45514;-79
2021/08/03 18:26:33;;;;;;;;;9.00;6.50;;;;;;;;4577121;30;45620;-79
2021/08/03 18:28:58;;;;;;;;;7.25;5.00;;;;;;;;4566647;30;45777;-80
2021/08/03 18:31:47;;;;;;;;;6.00;5.75;;;;;;;;4576388;31;45635;-79
2021/08/03 18:34:17;;;;;;;;;8.00;5.75;;;;;;;;4564056;31;45623;-80
2021/08/03 18:36:44;;;;;;;;;10.75;5.00;;;;;;;;4554334;30;45446;-77
2021/08/03 18:39:12;;;;;;;;;5.00;5.00;;;;;;;;4541761;31;50941;-80
2021/08/03 18:44:53;;;;;;;;;4.00;4.00;;;;;;;;4488100;31;45694;-81
2021/08/03 18:47:19;;;;;;;;;5.25;5.25;;;;;;;;4493986;31;45622;-81
2021/08/03 18:50:07;;;;;;;;;6.50;4.75;;;;;;;;4510438;30;45510;-80
2021/08/03 18:52:42;;;;;;;;;5.75;4.00;;;;;;;;4533658;31;47172;-79
2021/08/03 18:55:07;;;;;;;;;4.75;4.00;;;;;;;;4536760;31;45639;-80
2021/08/03 18:58:05;;;;;;;;;;;;;;;;;;;;;
2021/08/03 19:00:36;;;;;;;;;5.50;5.50;;;;;;;;4537780;31;71122;-79
2021/08/03 19:03:04;;;;;;;;;7.50;5.00;;;;;;;;4522410;31;46333;-79
2021/08/03 19:05:58;;;;;;;;;5.00;4.00;;;;;;;;4531901;31;45814;-80
2021/08/03 19:11:47;;;;;;;;;3.50;3.50;;;;;;;;4473837;31;45623;-80
2021/08/03 19:14:20;;;;;;;;;5.00;5.00;;;;;;;;4526075;24;46299;-91
2021/08/03 19:16:47;;;;;;;;;5.00;5.00;;;;;;;;4684751;30;45309;-92
2021/08/03 19:19:14;;;;;;;;;6.25;4.50;;;;;;;;4711672;30;44670;-93
2021/08/03 19:21:50;;;;;;;;;6.50;4.75;;;;;;;;4685249;30;45356;-93
2021/08/03 19:24:17;;;;;;;;;5.50;5.00;;;;;;;;4703984;30;45616;-92
2021/08/03 19:26:46;;;;;;;;;6.00;6.00;;;;;;;;4704391;30;45395;-93
2021/08/03 19:29:15;;;;;;;;;6.00;5.00;;;;;;;;4695120;30;45386;-90
2021/08/03 19:32:00;;;;;;;;;7.00;5.00;;;;;;;;4706785;30;45663;-94
2021/08/03 19:34:26;;;;;;;;;6.00;5.50;;;;;;;;4691320;30;47550;-93
2021/08/03 19:37:03;;;;;;;;;7.00;4.00;;;;;;;;4704126;30;45241;-93
2021/08/03 19:39:37;;;;;;;;;4.00;4.00;;;;;;;;4695164;30;45538;-91
2021/08/03 19:42:04;;;;;;;;;5.75;5.75;;;;;;;;4692012;30;45538;-93
2021/08/03 19:44:29;;;;;;;;;6.25;5.50;;;;;;;;4679279;30;47065;-93
2021/08/03 19:46:58;;;;;;;;;5.75;5.75;;;;;;;;4684712;30;45283;-94
2021/08/03 19:49:24;;;;;;;;;4.50;4.00;;;;;;;;4687805;30;45031;-92
2021/08/03 19:51:54;;;;;;;;;5.00;5.00;;;;;;;;4689663;30;45670;-94
2021/08/03 19:54:25;;;;;;;;;7.25;5.00;;;;;;;;4677986;30;47266;-92
2021/08/03 19:56:52;;;;;;;;;5.50;4.25;;;;;;;;4699439;30;45472;-91
2021/08/03 19:59:18;;;;;;;;;6.00;5.25;;;;;;;;4700346;30;45205;-92
2021/08/03 20:01:43;;;;;;;;;5.00;3.00;;;;;;;;4700639;30;45439;-92
2021/08/03 20:04:08;;;;;;;;;5.75;5.75;;;;;;;;4701218;30;46015;-94
2021/08/03 20:06:34;;;;;;;;;6.00;5.00;;;;;;;;4689233;30;45826;-94
2021/08/03 20:09:00;;;;;;;;;5.25;4.00;;;;;;;;4708964;30;45374;-93
2021/08/03 20:14:03;;;;;;;;;4.25;4.00;;;;;;;;4690935;30;45271;-94
2021/08/03 20:16:28;;;;;;;;;5.50;5.50;;;;;;;;4696051;29;45447;-93
2021/08/03 20:18:54;;;;;;;;;6.00;6.00;;;;;;;;4704120;30;45321;-91
2021/08/03 20:21:19;;;;;;;;;5.75;5.75;;;;;;;;4697836;30;44883;-92
2021/08/03 20:23:44;;;;;;;;;5.25;5.25;;;;;;;;4693832;30;47452;-93
2021/08/03 20:26:10;;;;;;;;;6.50;6.50;;;;;;;;4686270;30;45496;-94
2021/08/03 20:28:40;;;;;;;;;5.50;4.00;;;;;;;;4696043;30;45638;-93
2021/08/03 20:31:06;;;;;;;;;7.00;6.00;;;;;;;;4716732;24;45637;-93
2021/08/03 20:33:33;;;;;;;;;7.50;4.25;;;;;;;;4786193;24;47221;-94
2021/08/03 20:35:59;;;;;;;;;8.00;6.00;;;;;;;;4702814;30;46685;-96
2021/08/03 20:38:31;;;;;;;;;4.75;4.75;;;;;;;;4717934;30;44754;-94
2021/08/03 20:40:59;;;;;;;;;5.25;5.00;;;;;;;;4752611;24;45515;-93